Latest Weather Observations for Bundaberg

IDQ60801

Issued at 10:02 am EST Saturday 25 April 2015 (issued every 30 minutes, with the page automatically refreshed every 10 minutes)

About weather observations | Map of weather stations | Latest weather observations for QLD | Other Formats
Station Details ID: 039128 Name: BUNDABERG AERO Lat: -24.91 Lon: 152.32 Height: 30.82 m
Data from the previous 72 hours. | See also: Recent months at Bundaberg
Date/Time
EST
Temp
°C
App
Temp
°C
Dew
Point
Rel
Hum
%
Delta-T
°C
Wind Press
QNH
hPa
Press
MSL
hPa
Rain
since 9 am
mm
Dir
 
Spd
km/h
Gust
km/h
Spd
kts
Gust
kts
25/10:00am 25.4 24.1 13.6 48 6.9 W 13 17 7 9 1011.6 1011.4 0.0
25/09:30am 24.3 23.3 14.7 55 5.7 WSW 13 17 7 9 1011.9 1011.7 0.0
25/08:30am 21.4 21.6 15.7 70 3.4 SW 9 13 5 7 1011.9 1011.7 0.0
25/08:00am 19.5 19.9 15.4 77 2.4 WSW 7 13 4 7 1011.8 1011.6 0.0
25/07:30am 17.8 18.2 15.2 85 1.5 W 7 11 4 6 1011.5 1011.3 0.0
25/07:00am 16.3 16.1 14.8 91 0.9 WSW 9 11 5 6 1011.3 1011.1 0.0
25/06:30am 14.3 14.2 13.3 94 0.6 WSW 6 9 3 5 1011.1 1010.9 0.0
25/05:30am 13.6 13.1 12.7 94 0.5 WSW 7 9 4 5 1010.6 1010.4 0.0
25/05:00am 14.2 15.3 13.4 95 0.4 CALM 0 0 0 0 1010.5 1010.3 0.0
25/04:30am 14.2 15.2 13.2 94 0.6 CALM 0 0 0 0 1010.1 1009.9 0.0
25/04:00am 14.3 15.2 13.0 92 0.7 CALM 0 0 0 0 1010.1 1009.9 0.0
25/03:30am 14.8 16.0 13.8 94 0.6 CALM 0 0 0 0 1010.2 1010.0 0.0
25/03:00am 14.8 15.9 13.5 92 0.7 CALM 0 0 0 0 1010.2 1010.0 0.0
25/02:30am 15.1 16.1 13.3 89 1.0 CALM 0 0 0 0 1010.2 1010.0 0.0
25/02:00am 16.0 17.4 14.4 90 0.9 CALM 0 0 0 0 1010.3 1010.1 0.0
25/01:30am 16.2 17.6 14.4 89 1.0 CALM 0 0 0 0 1010.3 1010.1 0.0
25/01:00am 16.0 16.3 14.4 90 0.9 W 6 7 3 4 1010.4 1010.2 0.0
25/12:30am 16.5 16.2 14.3 87 1.3 W 9 11 5 6 1010.8 1010.6 0.0
25/12:00am 16.1 17.5 14.5 90 0.9 CALM 0 0 0 0 1010.9 1010.7 0.0
 
Date/Time
EST
Temp
°C
App
Temp
°C
Dew
Point
Rel
Hum
%
Delta-T
°C
Wind Press
QNH
hPa
Press
MSL
hPa
Rain
since 9 am
mm
Dir
 
Spd
km/h
Gust
km/h
Spd
kts
Gust
kts
24/11:30pm 16.4 17.8 14.4 88 1.1 CALM 0 0 0 0 1010.7 1010.5 0.0
24/11:00pm 16.8 18.4 14.8 88 1.2 CALM 0 0 0 0 1010.9 1010.7 0.0
24/10:30pm 17.4 19.0 15.0 86 1.4 CALM 0 0 0 0 1011.0 1010.8 0.0
24/10:00pm 18.1 19.5 15.4 84 1.6 NW 2 6 1 3 1011.0 1010.8 0.0
24/09:30pm 18.1 18.7 15.4 84 1.6 NW 6 7 3 4 1011.1 1010.9 0.0
24/09:00pm 18.4 18.8 15.3 82 1.8 WNW 7 7 4 4 1010.9 1010.7 0.0
24/08:30pm 18.9 19.0 15.6 81 2.0 N 9 11 5 6 1010.7 1010.5 0.0
24/08:00pm 18.6 18.2 15.3 81 1.9 NNW 11 13 6 7 1010.5 1010.3 0.0
24/07:30pm 19.2 19.3 15.5 79 2.2 NNW 9 13 5 7 1010.4 1010.2 0.0
24/07:00pm 19.7 19.5 15.6 77 2.4 N 11 13 6 7 1010.0 1009.8 0.0
24/06:30pm 20.9 21.0 15.4 71 3.3 N 9 13 5 7 1009.7 1009.5 0.0
24/06:00pm 21.9 21.6 15.5 67 3.8 N 11 15 6 8 1009.4 1009.2 0.0
24/05:30pm 22.7 21.6 15.3 63 4.4 N 15 19 8 10 1009.1 1008.9 0.0
24/05:00pm 23.7 22.6 15.2 59 5.1 NNE 15 19 8 10 1008.6 1008.4 0.0
24/04:30pm 24.8 22.6 14.3 52 6.2 NNE 19 22 10 12 1008.3 1008.1 0.0
24/04:00pm 25.6 23.5 14.7 51 6.5 NNE 19 22 10 12 1008.1 1007.9 0.0
24/03:30pm 25.9 23.1 14.4 49 6.9 NNE 22 30 12 16 1007.8 1007.6 0.0
24/03:00pm 26.3 24.7 13.8 46 7.4 NNE 15 20 8 11 1007.9 1007.7 0.0
24/02:30pm 27.9 26.0 10.6 34 9.8 W 11 17 6 9 1007.9 1007.7 0.0
24/02:00pm 27.7 26.3 12.1 38 9.1 WSW 11 20 6 11 1008.2 1008.0 0.0
24/01:30pm 27.1 25.4 11.2 37 9.1 NW 11 17 6 9 1008.7 1008.5 0.0
24/01:00pm 26.5 24.7 11.0 38 8.8 WSW 11 17 6 9 1009.0 1008.8 0.0
24/12:30pm 26.7 25.2 12.0 40 8.5 SSW 11 17 6 9 1009.3 1009.1 0.0
24/12:00pm 26.6 25.6 11.1 38 8.8 WSW 7 15 4 8 1009.7 1009.5 0.0
24/11:30am 25.7 25.3 12.5 44 7.6 S 6 11 3 6 1010.2 1010.0 0.0
24/11:00am 25.4 24.4 13.3 47 7.1 WSW 11 15 6 8 1010.9 1010.7 0.0
24/10:30am 24.7 24.3 14.2 52 6.2 WSW 9 13 5 7 1011.5 1011.3 0.0
24/10:00am 23.5 23.4 13.9 55 5.6 SW 7 13 4 7 1011.6 1011.4 0.0
24/09:30am 22.6 22.2 14.2 59 4.9 WSW 9 13 5 7 1012.2 1012.0 0.0
24/09:00am 21.6 20.8 14.0 62 4.4 SW 11 17 6 9 1012.2 1012.0 0.0
24/08:30am 19.9 19.9 15.3 75 2.7 SW 9 11 5 6 1011.7 1011.5 0.0
24/08:00am 17.4 17.4 14.1 81 1.9 SW 7 11 4 6 1011.8 1011.6 0.0
24/07:30am 16.6 16.6 14.1 85 1.4 W 7 11 4 6 1011.5 1011.3 0.0
24/07:00am 15.3 16.3 13.3 88 1.1 CALM 0 0 0 0 1011.1 1010.9 0.0
24/06:30am 15.0 14.2 13.0 88 1.1 WSW 9 15 5 8 1011.1 1010.9 0.0
24/06:00am 15.2 14.1 13.2 88 1.1 WSW 11 13 6 7 1010.6 1010.4 0.0
24/05:30am 14.6 13.9 13.1 91 0.8 WSW 9 11 5 6 1010.3 1010.1 0.0
24/05:00am 13.8 13.4 12.4 91 0.8 WSW 6 7 3 4 1010.1 1009.9 0.0
24/04:30am 13.5 12.5 12.4 93 0.6 WSW 9 11 5 6 1010.1 1009.9 0.0
24/04:00am 13.8 13.3 12.5 92 0.7 WSW 7 9 4 5 1010.2 1010.0 0.0
24/03:30am 13.9 14.7 12.5 91 0.8 CALM 0 6 0 3 1010.2 1010.0 0.0
24/03:00am 14.4 15.4 13.1 92 0.7 CALM 0 0 0 0 1010.4 1010.2 0.0
24/02:30am 14.4 15.4 13.1 92 0.7 CALM 0 0 0 0 1010.6 1010.4 0.0
24/02:00am 14.5 15.4 13.0 91 0.8 CALM 0 0 0 0 1010.8 1010.6 0.0
24/01:30am 14.8 15.8 13.2 90 0.9 CALM 0 0 0 0 1011.0 1010.8 0.0
24/01:00am 15.0 15.3 13.4 90 0.9 WSW 4 9 2 5 1011.2 1011.0 0.0
24/12:30am 14.7 14.4 13.4 92 0.7 WSW 7 9 4 5 1011.6 1011.4 0.0
24/12:00am 14.9 14.8 13.4 91 0.8 W 6 7 3 4 1011.5 1011.3 0.0
 
Date/Time
EST
Temp
°C
App
Temp
°C
Dew
Point
Rel
Hum
%
Delta-T
°C
Wind Press
QNH
hPa
Press
MSL
hPa
Rain
since 9 am
mm
Dir
 
Spd
km/h
Gust
km/h
Spd
kts
Gust
kts
23/11:30pm 14.8 15.8 13.3 91 0.8 CALM 0 6 0 3 1011.6 1011.4 0.0
23/11:00pm 14.9 15.9 13.1 89 1.0 CALM 0 0 0 0 1011.7 1011.5 0.0
23/10:30pm 15.3 16.3 13.3 88 1.1 CALM 0 0 0 0 1011.5 1011.3 0.0
23/10:00pm 15.6 16.6 13.3 86 1.3 CALM 0 0 0 0 1011.7 1011.5 0.0
23/09:30pm 16.0 17.1 13.5 85 1.4 CALM 0 0 0 0 1011.7 1011.5 0.0
23/09:00pm 16.5 17.6 13.6 83 1.6 CALM 0 0 0 0 1011.7 1011.5 0.0
23/08:30pm 16.8 17.9 13.5 81 1.9 CALM 0 0 0 0 1011.7 1011.5 0.0
23/08:00pm 17.3 18.5 13.8 80 2.0 CALM 0 0 0 0 1011.3 1011.1 0.0
23/07:30pm 17.2 18.3 13.5 79 2.1 CALM 0 0 0 0 1011.2 1011.0 0.0
23/07:00pm 17.5 18.5 13.2 76 2.4 CALM 0 0 0 0 1010.8 1010.6 0.0
23/06:30pm 18.2 18.4 13.1 72 2.9 NNE 4 6 2 3 1010.5 1010.3 0.0
23/06:00pm 19.8 19.2 13.5 67 3.6 NE 9 9 5 5 1010.2 1010.0 0.0
23/05:30pm 20.6 19.9 13.1 62 4.3 NE 9 9 5 5 1009.8 1009.6 0.0
23/05:00pm 22.1 20.4 13.5 58 5.0 NE 15 20 8 11 1009.3 1009.1 0.0
23/04:30pm 23.2 21.3 13.1 53 5.8 NE 15 19 8 10 1009.2 1009.0 0.0
23/04:00pm 24.0 21.8 13.2 50 6.3 NE 17 20 9 11 1008.9 1008.7 0.0
23/03:30pm 26.0 25.5 10.6 38 8.6 S 4 11 2 6 1009.1 1008.9 0.0
23/03:00pm 25.7 24.1 10.3 38 8.6 WSW 9 17 5 9 1009.2 1009.0 0.0
23/02:30pm 25.3 22.5 10.0 38 8.5 SSW 15 20 8 11 1009.4 1009.2 0.0
23/02:00pm 25.4 23.9 10.4 39 8.4 S 9 15 5 8 1009.6 1009.4 0.0
23/01:30pm 25.2 24.1 12.1 44 7.5 S 9 19 5 10 1009.9 1009.7 0.0
23/01:00pm 24.9 23.2 11.1 42 7.8 SW 11 17 6 9 1010.5 1010.3 0.0
23/12:30pm 24.5 23.1 12.1 46 7.1 SW 11 20 6 11 1011.2 1011.0 0.0
23/12:00pm 23.7 21.5 10.7 44 7.2 SW 13 19 7 10 1011.8 1011.6 0.0
23/11:30am 22.8 20.5 10.3 45 6.9 S 13 17 7 9 1012.4 1012.2 0.0
23/11:00am 22.7 20.4 10.5 46 6.7 SSW 13 22 7 12 1013.0 1012.9 0.0
23/10:30am 22.1 19.6 11.2 50 6.1 S 15 22 8 12 1013.3 1013.2 0.0
23/10:00am 21.3 18.4 11.1 52 5.6 S 17 24 9 13 1013.7 1013.6 0.0
23/09:30am 20.8 17.6 10.0 50 5.8 S 17 26 9 14 1013.8 1013.7 0.0
23/09:00am 19.8 18.9 12.6 63 4.1 SSW 9 17 5 9 1014.0 1013.9 0.0
23/08:30am 18.0 16.5 11.8 67 3.4 SW 11 17 6 9 1014.0 1013.9 0.0
23/08:00am 16.5 15.4 12.1 75 2.4 SW 9 13 5 7 1013.8 1013.7 0.0
23/07:30am 14.7 13.4 11.1 79 1.9 SW 9 13 5 7 1013.7 1013.6 0.0
23/07:00am 13.0 11.4 10.2 83 1.4 SW 9 13 5 7 1013.4 1013.3 0.0
23/06:30am 11.4 10.0 9.5 88 1.0 SW 7 11 4 6 1013.2 1013.1 0.0
23/06:00am 11.1 9.7 9.0 87 1.0 SW 6 7 3 4 1012.9 1012.8 0.0
23/05:30am 11.2 9.6 8.9 86 1.1 SW 7 9 4 5 1012.7 1012.5 0.0
23/05:00am 11.6 10.1 9.0 84 1.3 SSW 7 9 4 5 1012.3 1012.1 0.0
23/04:30am 11.7 9.9 9.3 85 1.2 WSW 9 11 5 6 1012.1 1011.9 0.0
23/04:00am 12.0 10.5 9.2 83 1.4 SW 7 9 4 5 1012.0 1011.8 0.0
23/03:30am 11.7 10.2 9.1 84 1.3 SW 7 9 4 5 1011.9 1011.7 0.0
23/03:00am 12.2 10.7 9.2 82 1.5 SW 7 9 4 5 1012.0 1011.8 0.0
23/02:30am 12.9 11.5 9.5 80 1.7 SW 7 9 4 5 1012.1 1011.9 0.0
23/02:00am 13.4 12.0 9.5 77 2.0 SSW 7 11 4 6 1012.3 1012.1 0.0
23/01:30am 13.7 11.2 9.7 77 2.1 SW 13 17 7 9 1012.5 1012.3 0.0
23/01:00am 13.9 11.8 9.9 77 2.1 SW 11 15 6 8 1012.7 1012.5 0.0
23/12:30am 14.0 12.0 10.0 77 2.1 SW 11 15 6 8 1013.0 1012.9 0.0
23/12:00am 13.7 12.3 9.7 77 2.1 SW 7 11 4 6 1013.2 1013.1 0.0
 
Date/Time
EST
Temp
°C
App
Temp
°C
Dew
Point
Rel
Hum
%
Delta-T
°C
Wind Press
QNH
hPa
Press
MSL
hPa
Rain
since 9 am
mm
Dir
 
Spd
km/h
Gust
km/h
Spd
kts
Gust
kts
22/11:30pm 14.3 13.2 9.9 75 2.3 SSW 6 9 3 5 1013.5 1013.4 0.0
22/11:00pm 14.9 13.3 10.1 73 2.5 SSW 9 13 5 7 1013.6 1013.5 0.0
22/10:30pm 15.1 13.6 10.5 74 2.4 SW 9 13 5 7 1013.9 1013.8 0.0
22/10:00pm 14.9 13.6 11.3 79 1.9 WSW 9 11 5 6 1014.0 1013.9 0.0
22/09:30pm 14.1 13.3 11.8 86 1.2 SW 7 9 4 5 1014.1 1014.0 0.0
22/09:00pm 14.7 14.2 12.0 84 1.5 SW 6 6 3 3 1014.1 1014.0 0.0
22/08:30pm 14.8 15.1 12.1 84 1.5 S 2 6 1 3 1014.0 1013.9 0.0
22/08:00pm 15.8 15.0 11.8 77 2.2 WSW 7 9 4 5 1013.9 1013.8 0.0
22/07:30pm 16.1 15.4 12.1 77 2.2 W 7 9 4 5 1013.6 1013.5 0.0
22/07:00pm 16.7 15.9 11.8 73 2.7 W 7 9 4 5 1013.2 1013.1 0.0
22/06:30pm 17.5 16.3 11.5 68 3.3 W 9 9 5 5 1012.9 1012.8 0.0
22/06:00pm 18.8 18.3 11.9 64 3.8 WSW 6 7 3 4 1012.7 1012.5 0.0
22/05:30pm 20.4 19.5 11.3 56 5.0 SW 7 11 4 6 1012.5 1012.3 0.0
22/05:00pm 22.0 21.0 11.1 50 6.0 SSW 7 9 4 5 1012.1 1011.9 0.0
22/04:30pm 22.8 21.1 11.2 48 6.5 SW 11 17 6 9 1011.8 1011.6 0.0
22/04:00pm 23.1 21.0 11.2 47 6.6 SSW 13 19 7 10 1011.4 1011.2 0.0
22/03:30pm 23.2 21.7 10.6 45 7.0 SSW 9 19 5 10 1011.4 1011.2 0.0
22/03:00pm 23.5 21.8 11.2 46 6.9 SSW 11 22 6 12 1011.4 1011.2 0.0
22/02:30pm 23.0 21.4 10.1 44 7.1 SW 9 17 5 9 1011.8 1011.6 0.0
22/02:00pm 23.2 22.0 11.6 48 6.5 SSW 9 19 5 10 1012.2 1012.0 0.0
22/01:30pm 22.4 20.9 10.5 47 6.5 SSW 9 17 5 9 1012.5 1012.3 0.0
22/01:00pm 22.0 19.8 10.8 49 6.2 SW 13 20 7 11 1012.9 1012.8 0.0
22/12:30pm 21.5 19.2 10.6 50 6.0 SSW 13 19 7 10 1013.4 1013.3 0.0
22/12:00pm 20.7 18.5 10.8 53 5.4 SW 13 17 7 9 1013.8 1013.7 0.0
22/11:30am 20.4 19.1 11.1 55 5.1 SW 9 17 5 9 1014.4 1014.3 0.0
22/11:00am 19.7 16.9 10.1 54 5.2 SW 15 22 8 12 1015.1 1015.0 0.0
22/10:30am 18.9 16.6 10.5 58 4.5 SSW 13 19 7 10 1015.5 1015.4 0.0

Other Formats:

Comma delimited format used in spreadsheet applications
http://www.bom.gov.au/fwo/IDQ60801/IDQ60801.94387.axf

JavaScript Object Notation format (JSON) in row-major order
http://www.bom.gov.au/fwo/IDQ60801/IDQ60801.94387.json